sensor_id;sensor_type;location;lat;lon;timestamp;temperature;humidity
7598;DHT22;3840;59.32098800;18.06423600;2023-06-19T00:00:53;16.80;99.90
7598;DHT22;3840;59.32098800;18.06423600;2023-06-19T00:03:19;16.80;99.90
7598;DHT22;3840;59.32098800;18.06423600;2023-06-19T00:05:44;16.80;99.90
7598;DHT22;3840;59.32098800;18.06423600;2023-06-19T00:08:10;16.70;99.90
7598;DHT22;3840;59.32098800;18.06423600;2023-06-19T00:10:36;16.70;99.90
7598;DHT22;3840;59.32098800;18.06423600;2023-06-19T00:13:01;16.70;99.90
7598;DHT22;3840;59.32098800;18.06423600;2023-06-19T00:15:28;16.70;99.90
7598;DHT22;3840;59.32098800;18.06423600;2023-06-19T00:17:56;16.70;99.90
7598;DHT22;3840;59.32098800;18.06423600;2023-06-19T00:20:22;16.70;99.90
7598;DHT22;3840;59.32098800;18.06423600;2023-06-19T00:22:48;16.70;99.90
7598;DHT22;3840;59.32098800;18.06423600;2023-06-19T00:25:20;16.70;99.90
7598;DHT22;3840;59.32098800;18.06423600;2023-06-19T00:27:49;16.70;99.90
7598;DHT22;3840;59.32098800;18.06423600;2023-06-19T00:30:15;16.70;99.90
7598;DHT22;3840;59.32098800;18.06423600;2023-06-19T00:32:41;16.70;99.90
7598;DHT22;3840;59.32098800;18.06423600;2023-06-19T00:35:15;16.70;99.90
7598;DHT22;3840;59.32098800;18.06423600;2023-06-19T00:37:41;16.70;99.90
7598;DHT22;3840;59.32098800;18.06423600;2023-06-19T00:40:30;16.70;99.90
7598;DHT22;3840;59.32098800;18.06423600;2023-06-19T00:42:56;16.70;99.90
7598;DHT22;3840;59.32098800;18.06423600;2023-06-19T00:45:22;16.70;99.90
7598;DHT22;3840;59.32098800;18.06423600;2023-06-19T00:47:50;16.70;99.90
7598;DHT22;3840;59.32098800;18.06423600;2023-06-19T00:50:18;16.70;99.90
7598;DHT22;3840;59.32098800;18.06423600;2023-06-19T00:52:44;16.70;99.90
7598;DHT22;3840;59.32098800;18.06423600;2023-06-19T00:55:10;16.70;99.90
7598;DHT22;3840;59.32098800;18.06423600;2023-06-19T00:57:36;16.60;99.90
7598;DHT22;3840;59.32098800;18.06423600;2023-06-19T01:00:03;16.60;99.90
7598;DHT22;3840;59.32098800;18.06423600;2023-06-19T01:02:31;16.60;99.90
7598;DHT22;3840;59.32098800;18.06423600;2023-06-19T01:04:58;16.60;99.90
7598;DHT22;3840;59.32098800;18.06423600;2023-06-19T01:10:01;16.60;99.90
7598;DHT22;3840;59.32098800;18.06423600;2023-06-19T01:12:38;16.60;99.90
7598;DHT22;3840;59.32098800;18.06423600;2023-06-19T01:15:07;16.60;99.90
7598;DHT22;3840;59.32098800;18.06423600;2023-06-19T01:17:35;16.60;99.90
7598;DHT22;3840;59.32098800;18.06423600;2023-06-19T01:20:01;16.60;99.90
7598;DHT22;3840;59.32098800;18.06423600;2023-06-19T01:22:32;16.60;99.90
7598;DHT22;3840;59.32098800;18.06423600;2023-06-19T01:24:58;16.60;99.90
7598;DHT22;3840;59.32098800;18.06423600;2023-06-19T01:27:25;16.50;99.90
7598;DHT22;3840;59.32098800;18.06423600;2023-06-19T01:29:51;16.50;99.90
7598;DHT22;3840;59.32098800;18.06423600;2023-06-19T01:32:31;16.60;99.90
7598;DHT22;3840;59.32098800;18.06423600;2023-06-19T01:34:59;16.60;99.90
7598;DHT22;3840;59.32098800;18.06423600;2023-06-19T01:37:27;16.60;99.90
7598;DHT22;3840;59.32098800;18.06423600;2023-06-19T01:39:56;16.60;99.90
7598;DHT22;3840;59.32098800;18.06423600;2023-06-19T01:42:22;16.60;99.90
7598;DHT22;3840;59.32098800;18.06423600;2023-06-19T01:44:49;16.60;99.90
7598;DHT22;3840;59.32098800;18.06423600;2023-06-19T01:47:15;16.60;99.90
7598;DHT22;3840;59.32098800;18.06423600;2023-06-19T01:49:46;16.60;99.90
7598;DHT22;3840;59.32098800;18.06423600;2023-06-19T01:52:12;16.70;99.90
7598;DHT22;3840;59.32098800;18.06423600;2023-06-19T01:54:39;16.60;99.90
7598;DHT22;3840;59.32098800;18.06423600;2023-06-19T01:57:05;16.60;99.90
7598;DHT22;3840;59.32098800;18.06423600;2023-06-19T01:59:30;16.60;99.90
7598;DHT22;3840;59.32098800;18.06423600;2023-06-19T02:01:56;16.60;99.90
7598;DHT22;3840;59.32098800;18.06423600;2023-06-19T02:04:22;16.60;99.90
7598;DHT22;3840;59.32098800;18.06423600;2023-06-19T02:06:49;16.60;99.90
7598;DHT22;3840;59.32098800;18.06423600;2023-06-19T02:09:14;16.50;99.90
7598;DHT22;3840;59.32098800;18.06423600;2023-06-19T02:11:41;16.50;99.90
7598;DHT22;3840;59.32098800;18.06423600;2023-06-19T02:14:09;16.50;99.90
7598;DHT22;3840;59.32098800;18.06423600;2023-06-19T02:16:35;16.50;99.90
7598;DHT22;3840;59.32098800;18.06423600;2023-06-19T02:19:01;16.50;99.90
7598;DHT22;3840;59.32098800;18.06423600;2023-06-19T02:21:27;16.50;99.90
7598;DHT22;3840;59.32098800;18.06423600;2023-06-19T02:23:53;16.60;99.90
7598;DHT22;3840;59.32098800;18.06423600;2023-06-19T02:26:19;16.60;99.90
7598;DHT22;3840;59.32098800;18.06423600;2023-06-19T02:28:45;16.50;99.90
7598;DHT22;3840;59.32098800;18.06423600;2023-06-19T02:31:10;16.50;99.90
7598;DHT22;3840;59.32098800;18.06423600;2023-06-19T02:33:36;16.50;99.90
7598;DHT22;3840;59.32098800;18.06423600;2023-06-19T02:36:02;16.50;99.90
7598;DHT22;3840;59.32098800;18.06423600;2023-06-19T02:38:28;16.50;99.90
7598;DHT22;3840;59.32098800;18.06423600;2023-06-19T02:40:55;16.50;99.90
7598;DHT22;3840;59.32098800;18.06423600;2023-06-19T02:43:23;16.50;99.90
7598;DHT22;3840;59.32098800;18.06423600;2023-06-19T02:45:48;16.60;99.90
7598;DHT22;3840;59.32098800;18.06423600;2023-06-19T02:48:14;16.50;99.90
7598;DHT22;3840;59.32098800;18.06423600;2023-06-19T02:50:40;16.50;99.90
7598;DHT22;3840;59.32098800;18.06423600;2023-06-19T02:53:06;16.50;99.90
7598;DHT22;3840;59.32098800;18.06423600;2023-06-19T02:55:31;16.50;99.90
7598;DHT22;3840;59.32098800;18.06423600;2023-06-19T02:57:58;16.60;99.90
7598;DHT22;3840;59.32098800;18.06423600;2023-06-19T03:00:25;16.60;99.90
7598;DHT22;3840;59.32098800;18.06423600;2023-06-19T03:02:54;16.50;99.90
7598;DHT22;3840;59.32098800;18.06423600;2023-06-19T03:05:19;16.60;99.90
7598;DHT22;3840;59.32098800;18.06423600;2023-06-19T03:07:45;16.50;99.90
7598;DHT22;3840;59.32098800;18.06423600;2023-06-19T03:10:11;16.60;99.90
7598;DHT22;3840;59.32098800;18.06423600;2023-06-19T03:12:37;16.60;99.90
7598;DHT22;3840;59.32098800;18.06423600;2023-06-19T03:15:02;16.60;99.90
7598;DHT22;3840;59.32098800;18.06423600;2023-06-19T03:17:28;16.60;99.90
7598;DHT22;3840;59.32098800;18.06423600;2023-06-19T03:19:54;16.60;99.90
7598;DHT22;3840;59.32098800;18.06423600;2023-06-19T03:22:20;16.60;99.90
7598;DHT22;3840;59.32098800;18.06423600;2023-06-19T03:24:46;16.60;99.90
7598;DHT22;3840;59.32098800;18.06423600;2023-06-19T03:27:12;16.60;99.90
7598;DHT22;3840;59.32098800;18.06423600;2023-06-19T03:29:37;16.60;99.90
7598;DHT22;3840;59.32098800;18.06423600;2023-06-19T03:32:03;16.70;99.90
7598;DHT22;3840;59.32098800;18.06423600;2023-06-19T03:34:29;16.70;99.90
7598;DHT22;3840;59.32098800;18.06423600;2023-06-19T03:36:55;16.70;99.90
7598;DHT22;3840;59.32098800;18.06423600;2023-06-19T03:39:21;16.70;99.90
7598;DHT22;3840;59.32098800;18.06423600;2023-06-19T03:41:46;16.70;99.90
7598;DHT22;3840;59.32098800;18.06423600;2023-06-19T03:44:12;16.70;99.90
7598;DHT22;3840;59.32098800;18.06423600;2023-06-19T03:46:38;16.70;99.90
7598;DHT22;3840;59.32098800;18.06423600;2023-06-19T03:49:04;16.70;99.90
7598;DHT22;3840;59.32098800;18.06423600;2023-06-19T03:51:30;16.80;99.90
7598;DHT22;3840;59.32098800;18.06423600;2023-06-19T03:53:56;16.80;99.90
7598;DHT22;3840;59.32098800;18.06423600;2023-06-19T03:56:22;16.80;99.90
7598;DHT22;3840;59.32098800;18.06423600;2023-06-19T03:58:47;16.80;99.90
7598;DHT22;3840;59.32098800;18.06423600;2023-06-19T04:01:13;16.80;99.90
7598;DHT22;3840;59.32098800;18.06423600;2023-06-19T04:03:39;16.80;99.90
7598;DHT22;3840;59.32098800;18.06423600;2023-06-19T04:06:04;16.80;99.90
7598;DHT22;3840;59.32098800;18.06423600;2023-06-19T04:08:30;16.90;99.90
7598;DHT22;3840;59.32098800;18.06423600;2023-06-19T04:10:56;16.90;99.90
7598;DHT22;3840;59.32098800;18.06423600;2023-06-19T04:13:22;16.90;99.90
7598;DHT22;3840;59.32098800;18.06423600;2023-06-19T04:15:47;16.90;99.90
7598;DHT22;3840;59.32098800;18.06423600;2023-06-19T04:18:13;16.90;99.90
7598;DHT22;3840;59.32098800;18.06423600;2023-06-19T04:20:39;16.90;99.90
7598;DHT22;3840;59.32098800;18.06423600;2023-06-19T04:23:06;17.00;99.90
7598;DHT22;3840;59.32098800;18.06423600;2023-06-19T04:25:32;17.00;99.90
7598;DHT22;3840;59.32098800;18.06423600;2023-06-19T04:27:57;17.00;99.90
7598;DHT22;3840;59.32098800;18.06423600;2023-06-19T04:30:23;17.10;99.90
7598;DHT22;3840;59.32098800;18.06423600;2023-06-19T04:32:49;17.10;99.90
7598;DHT22;3840;59.32098800;18.06423600;2023-06-19T04:35:14;17.20;99.90
7598;DHT22;3840;59.32098800;18.06423600;2023-06-19T04:37:40;17.20;99.90
7598;DHT22;3840;59.32098800;18.06423600;2023-06-19T04:40:06;17.20;99.90
7598;DHT22;3840;59.32098800;18.06423600;2023-06-19T04:42:36;17.30;99.90
7598;DHT22;3840;59.32098800;18.06423600;2023-06-19T04:45:04;17.40;99.90
7598;DHT22;3840;59.32098800;18.06423600;2023-06-19T04:47:33;17.80;99.90
7598;DHT22;3840;59.32098800;18.06423600;2023-06-19T04:49:59;17.40;99.90
7598;DHT22;3840;59.32098800;18.06423600;2023-06-19T04:52:24;17.50;99.90
7598;DHT22;3840;59.32098800;18.06423600;2023-06-19T04:54:50;17.50;99.90
7598;DHT22;3840;59.32098800;18.06423600;2023-06-19T04:57:16;17.50;99.90
7598;DHT22;3840;59.32098800;18.06423600;2023-06-19T04:59:42;17.40;99.90
7598;DHT22;3840;59.32098800;18.06423600;2023-06-19T05:02:10;17.50;99.90
7598;DHT22;3840;59.32098800;18.06423600;2023-06-19T05:04:35;17.50;99.90
7598;DHT22;3840;59.32098800;18.06423600;2023-06-19T05:07:02;17.60;99.90
7598;DHT22;3840;59.32098800;18.06423600;2023-06-19T05:09:28;17.60;99.90
7598;DHT22;3840;59.32098800;18.06423600;2023-06-19T05:11:54;17.70;99.90
7598;DHT22;3840;59.32098800;18.06423600;2023-06-19T05:14:20;17.80;99.90
7598;DHT22;3840;59.32098800;18.06423600;2023-06-19T05:16:45;17.80;99.90
7598;DHT22;3840;59.32098800;18.06423600;2023-06-19T05:19:11;17.80;99.90
7598;DHT22;3840;59.32098800;18.06423600;2023-06-19T05:21:37;17.80;99.90
7598;DHT22;3840;59.32098800;18.06423600;2023-06-19T05:24:02;17.80;99.90
7598;DHT22;3840;59.32098800;18.06423600;2023-06-19T05:26:28;17.80;99.90
7598;DHT22;3840;59.32098800;18.06423600;2023-06-19T05:28:54;17.70;99.90
7598;DHT22;3840;59.32098800;18.06423600;2023-06-19T05:31:19;17.80;99.90
7598;DHT22;3840;59.32098800;18.06423600;2023-06-19T05:33:45;17.80;99.90
7598;DHT22;3840;59.32098800;18.06423600;2023-06-19T05:36:12;17.80;99.90
7598;DHT22;3840;59.32098800;18.06423600;2023-06-19T05:38:40;17.90;99.90
7598;DHT22;3840;59.32098800;18.06423600;2023-06-19T05:41:06;17.90;99.90
7598;DHT22;3840;59.32098800;18.06423600;2023-06-19T05:43:32;18.00;99.90
7598;DHT22;3840;59.32098800;18.06423600;2023-06-19T05:45:58;18.00;99.90
7598;DHT22;3840;59.32098800;18.06423600;2023-06-19T05:48:25;18.10;99.90
7598;DHT22;3840;59.32098800;18.06423600;2023-06-19T05:50:51;18.00;99.90
7598;DHT22;3840;59.32098800;18.06423600;2023-06-19T05:53:17;18.00;99.90
7598;DHT22;3840;59.32098800;18.06423600;2023-06-19T05:55:44;17.90;99.90
7598;DHT22;3840;59.32098800;18.06423600;2023-06-19T05:58:10;17.90;99.90
7598;DHT22;3840;59.32098800;18.06423600;2023-06-19T06:00:36;17.90;99.90
7598;DHT22;3840;59.32098800;18.06423600;2023-06-19T06:03:01;17.80;99.90
7598;DHT22;3840;59.32098800;18.06423600;2023-06-19T06:05:27;17.80;99.90
7598;DHT22;3840;59.32098800;18.06423600;2023-06-19T06:07:54;17.80;99.90
7598;DHT22;3840;59.32098800;18.06423600;2023-06-19T06:10:23;17.80;99.90
7598;DHT22;3840;59.32098800;18.06423600;2023-06-19T06:12:50;17.80;99.90
7598;DHT22;3840;59.32098800;18.06423600;2023-06-19T06:15:16;17.80;99.90
7598;DHT22;3840;59.32098800;18.06423600;2023-06-19T06:17:42;17.80;99.90
7598;DHT22;3840;59.32098800;18.06423600;2023-06-19T06:20:09;17.90;99.90
7598;DHT22;3840;59.32098800;18.06423600;2023-06-19T06:22:42;18.10;99.90
7598;DHT22;3840;59.32098800;18.06423600;2023-06-19T06:25:09;18.40;99.90
7598;DHT22;3840;59.32098800;18.06423600;2023-06-19T06:27:36;18.70;99.90
7598;DHT22;3840;59.32098800;18.06423600;2023-06-19T06:30:03;18.80;99.90
7598;DHT22;3840;59.32098800;18.06423600;2023-06-19T06:32:29;18.90;99.90
7598;DHT22;3840;59.32098800;18.06423600;2023-06-19T06:34:56;19.10;99.90
7598;DHT22;3840;59.32098800;18.06423600;2023-06-19T06:37:22;19.00;99.90
7598;DHT22;3840;59.32098800;18.06423600;2023-06-19T06:39:51;19.00;99.90
7598;DHT22;3840;59.32098800;18.06423600;2023-06-19T06:42:17;19.00;99.90
7598;DHT22;3840;59.32098800;18.06423600;2023-06-19T06:44:44;18.90;99.90
7598;DHT22;3840;59.32098800;18.06423600;2023-06-19T06:47:10;18.90;99.90
7598;DHT22;3840;59.32098800;18.06423600;2023-06-19T06:49:36;18.90;99.90
7598;DHT22;3840;59.32098800;18.06423600;2023-06-19T06:52:05;19.00;99.90
7598;DHT22;3840;59.32098800;18.06423600;2023-06-19T06:54:31;19.10;99.90
7598;DHT22;3840;59.32098800;18.06423600;2023-06-19T06:56:58;19.00;99.90
7598;DHT22;3840;59.32098800;18.06423600;2023-06-19T06:59:26;19.00;99.90
7598;DHT22;3840;59.32098800;18.06423600;2023-06-19T07:01:53;19.00;99.90
7598;DHT22;3840;59.32098800;18.06423600;2023-06-19T07:04:20;18.90;99.90
7598;DHT22;3840;59.32098800;18.06423600;2023-06-19T07:06:45;18.70;99.90
7598;DHT22;3840;59.32098800;18.06423600;2023-06-19T07:09:11;19.20;99.90
7598;DHT22;3840;59.32098800;18.06423600;2023-06-19T07:11:38;19.20;99.90
7598;DHT22;3840;59.32098800;18.06423600;2023-06-19T07:14:03;19.30;99.90
7598;DHT22;3840;59.32098800;18.06423600;2023-06-19T07:16:29;19.40;99.90
7598;DHT22;3840;59.32098800;18.06423600;2023-06-19T07:18:55;19.40;99.90
7598;DHT22;3840;59.32098800;18.06423600;2023-06-19T07:21:22;19.30;99.90
7598;DHT22;3840;59.32098800;18.06423600;2023-06-19T07:23:48;19.50;99.90
7598;DHT22;3840;59.32098800;18.06423600;2023-06-19T07:26:14;19.50;99.90
7598;DHT22;3840;59.32098800;18.06423600;2023-06-19T07:28:41;19.50;99.90
7598;DHT22;3840;59.32098800;18.06423600;2023-06-19T07:31:07;19.70;99.90
7598;DHT22;3840;59.32098800;18.06423600;2023-06-19T07:33:33;19.80;99.90
7598;DHT22;3840;59.32098800;18.06423600;2023-06-19T07:36:00;19.90;99.90
7598;DHT22;3840;59.32098800;18.06423600;2023-06-19T07:38:28;20.00;99.90
7598;DHT22;3840;59.32098800;18.06423600;2023-06-19T07:40:53;20.00;99.90
7598;DHT22;3840;59.32098800;18.06423600;2023-06-19T07:43:19;20.00;99.90
7598;DHT22;3840;59.32098800;18.06423600;2023-06-19T07:45:48;20.10;99.90
7598;DHT22;3840;59.32098800;18.06423600;2023-06-19T07:48:15;20.20;99.90
7598;DHT22;3840;59.32098800;18.06423600;2023-06-19T07:50:41;20.30;99.90
7598;DHT22;3840;59.32098800;18.06423600;2023-06-19T07:53:07;20.30;99.90
7598;DHT22;3840;59.32098800;18.06423600;2023-06-19T07:55:32;20.40;99.90
7598;DHT22;3840;59.32098800;18.06423600;2023-06-19T07:58:00;20.40;99.90
7598;DHT22;3840;59.32098800;18.06423600;2023-06-19T08:00:26;20.40;99.90
7598;DHT22;3840;59.32098800;18.06423600;2023-06-19T08:02:52;20.60;99.90
7598;DHT22;3840;59.32098800;18.06423600;2023-06-19T08:05:17;20.80;99.90
7598;DHT22;3840;59.32098800;18.06423600;2023-06-19T08:07:43;20.80;99.90
7598;DHT22;3840;59.32098800;18.06423600;2023-06-19T08:10:09;21.00;99.90
7598;DHT22;3840;59.32098800;18.06423600;2023-06-19T08:12:35;21.20;99.90
7598;DHT22;3840;59.32098800;18.06423600;2023-06-19T08:15:00;21.20;99.90
7598;DHT22;3840;59.32098800;18.06423600;2023-06-19T08:17:26;21.20;99.90
7598;DHT22;3840;59.32098800;18.06423600;2023-06-19T08:19:52;21.20;99.90
7598;DHT22;3840;59.32098800;18.06423600;2023-06-19T08:22:17;21.40;99.90
7598;DHT22;3840;59.32098800;18.06423600;2023-06-19T08:24:43;21.30;99.90
7598;DHT22;3840;59.32098800;18.06423600;2023-06-19T08:27:09;21.50;99.90
7598;DHT22;3840;59.32098800;18.06423600;2023-06-19T08:29:35;21.60;99.90
7598;DHT22;3840;59.32098800;18.06423600;2023-06-19T08:32:00;21.80;99.90
7598;DHT22;3840;59.32098800;18.06423600;2023-06-19T08:34:27;21.90;99.90
7598;DHT22;3840;59.32098800;18.06423600;2023-06-19T08:36:53;22.00;99.90
7598;DHT22;3840;59.32098800;18.06423600;2023-06-19T08:39:19;21.90;99.90
7598;DHT22;3840;59.32098800;18.06423600;2023-06-19T08:41:47;21.90;99.90
7598;DHT22;3840;59.32098800;18.06423600;2023-06-19T08:44:13;21.90;99.90
7598;DHT22;3840;59.32098800;18.06423600;2023-06-19T08:46:39;21.90;99.90
7598;DHT22;3840;59.32098800;18.06423600;2023-06-19T08:49:08;21.70;99.90
7598;DHT22;3840;59.32098800;18.06423600;2023-06-19T08:51:35;22.00;99.90
7598;DHT22;3840;59.32098800;18.06423600;2023-06-19T08:54:03;22.00;99.90
7598;DHT22;3840;59.32098800;18.06423600;2023-06-19T08:56:30;22.10;99.90
7598;DHT22;3840;59.32098800;18.06423600;2023-06-19T08:59:27;22.40;99.90
7598;DHT22;3840;59.32098800;18.06423600;2023-06-19T09:01:55;22.50;99.90
7598;DHT22;3840;59.32098800;18.06423600;2023-06-19T09:04:23;22.60;99.90
7598;DHT22;3840;59.32098800;18.06423600;2023-06-19T09:09:20;22.40;99.90
7598;DHT22;3840;59.32098800;18.06423600;2023-06-19T09:12:16;22.10;99.90
7598;DHT22;3840;59.32098800;18.06423600;2023-06-19T09:14:44;22.20;99.90
7598;DHT22;3840;59.32098800;18.06423600;2023-06-19T09:17:20;22.20;99.90
7598;DHT22;3840;59.32098800;18.06423600;2023-06-19T09:19:52;22.20;99.90
7598;DHT22;3840;59.32098800;18.06423600;2023-06-19T09:22:20;22.00;99.90
7598;DHT22;3840;59.32098800;18.06423600;2023-06-19T09:24:47;22.30;99.90
7598;DHT22;3840;59.32098800;18.06423600;2023-06-19T09:27:19;22.40;99.90
7598;DHT22;3840;59.32098800;18.06423600;2023-06-19T09:29:47;22.40;99.90
7598;DHT22;3840;59.32098800;18.06423600;2023-06-19T09:32:27;22.40;99.90
7598;DHT22;3840;59.32098800;18.06423600;2023-06-19T09:34:57;22.40;99.90
7598;DHT22;3840;59.32098800;18.06423600;2023-06-19T09:37:28;22.30;99.90
7598;DHT22;3840;59.32098800;18.06423600;2023-06-19T09:40:00;22.20;99.90
7598;DHT22;3840;59.32098800;18.06423600;2023-06-19T09:42:31;22.10;99.90
7598;DHT22;3840;59.32098800;18.06423600;2023-06-19T09:45:03;22.20;99.90
7598;DHT22;3840;59.32098800;18.06423600;2023-06-19T09:47:43;22.10;99.90
7598;DHT22;3840;59.32098800;18.06423600;2023-06-19T09:50:13;22.00;99.90
7598;DHT22;3840;59.32098800;18.06423600;2023-06-19T09:52:43;22.00;99.90
7598;DHT22;3840;59.32098800;18.06423600;2023-06-19T09:55:10;22.10;99.90
7598;DHT22;3840;59.32098800;18.06423600;2023-06-19T09:57:39;22.10;99.90
7598;DHT22;3840;59.32098800;18.06423600;2023-06-19T10:00:06;22.20;99.90
7598;DHT22;3840;59.32098800;18.06423600;2023-06-19T10:02:43;21.90;99.90
7598;DHT22;3840;59.32098800;18.06423600;2023-06-19T10:05:09;21.80;99.90
7598;DHT22;3840;59.32098800;18.06423600;2023-06-19T10:07:43;21.90;99.90
7598;DHT22;3840;59.32098800;18.06423600;2023-06-19T10:10:12;21.80;99.90
7598;DHT22;3840;59.32098800;18.06423600;2023-06-19T10:12:47;21.60;99.90
7598;DHT22;3840;59.32098800;18.06423600;2023-06-19T10:15:16;21.50;99.90
7598;DHT22;3840;59.32098800;18.06423600;2023-06-19T10:17:47;21.50;99.90
7598;DHT22;3840;59.32098800;18.06423600;2023-06-19T10:20:25;21.70;99.90
7598;DHT22;3840;59.32098800;18.06423600;2023-06-19T10:23:01;21.80;99.90
7598;DHT22;3840;59.32098800;18.06423600;2023-06-19T10:25:32;21.70;99.90
7598;DHT22;3840;59.32098800;18.06423600;2023-06-19T10:27:59;21.90;99.90
7598;DHT22;3840;59.32098800;18.06423600;2023-06-19T10:30:25;21.90;99.90
7598;DHT22;3840;59.32098800;18.06423600;2023-06-19T10:32:51;21.90;99.90
7598;DHT22;3840;59.32098800;18.06423600;2023-06-19T10:35:19;21.80;99.90
7598;DHT22;3840;59.32098800;18.06423600;2023-06-19T10:37:48;21.90;99.90
7598;DHT22;3840;59.32098800;18.06423600;2023-06-19T10:40:14;21.80;99.90
7598;DHT22;3840;59.32098800;18.06423600;2023-06-19T10:42:40;22.00;99.90
7598;DHT22;3840;59.32098800;18.06423600;2023-06-19T10:45:10;22.00;99.90
7598;DHT22;3840;59.32098800;18.06423600;2023-06-19T10:47:39;21.80;99.90
7598;DHT22;3840;59.32098800;18.06423600;2023-06-19T10:50:10;21.70;99.90
7598;DHT22;3840;59.32098800;18.06423600;2023-06-19T10:52:36;21.60;99.90
7598;DHT22;3840;59.32098800;18.06423600;2023-06-19T10:55:03;21.50;99.90
7598;DHT22;3840;59.32098800;18.06423600;2023-06-19T10:57:30;21.60;99.90
7598;DHT22;3840;59.32098800;18.06423600;2023-06-19T10:59:57;21.50;99.90
7598;DHT22;3840;59.32098800;18.06423600;2023-06-19T11:02:26;21.40;99.90
7598;DHT22;3840;59.32098800;18.06423600;2023-06-19T11:04:53;21.20;99.90
7598;DHT22;3840;59.32098800;18.06423600;2023-06-19T11:07:20;20.90;99.90
7598;DHT22;3840;59.32098800;18.06423600;2023-06-19T11:09:46;20.70;99.90
7598;DHT22;3840;59.32098800;18.06423600;2023-06-19T11:12:11;20.50;99.90
7598;DHT22;3840;59.32098800;18.06423600;2023-06-19T11:14:37;20.30;99.90
7598;DHT22;3840;59.32098800;18.06423600;2023-06-19T11:17:08;19.80;99.90
7598;DHT22;3840;59.32098800;18.06423600;2023-06-19T11:19:35;19.20;99.90
7598;DHT22;3840;59.32098800;18.06423600;2023-06-19T11:22:02;18.90;99.90
7598;DHT22;3840;59.32098800;18.06423600;2023-06-19T11:24:29;18.70;99.90
7598;DHT22;3840;59.32098800;18.06423600;2023-06-19T11:26:56;18.70;99.90
7598;DHT22;3840;59.32098800;18.06423600;2023-06-19T11:29:29;18.60;99.90
7598;DHT22;3840;59.32098800;18.06423600;2023-06-19T11:34:34;18.60;99.90
7598;DHT22;3840;59.32098800;18.06423600;2023-06-19T11:37:11;18.70;99.90
7598;DHT22;3840;59.32098800;18.06423600;2023-06-19T11:39:36;18.70;99.90
7598;DHT22;3840;59.32098800;18.06423600;2023-06-19T11:42:02;18.80;99.90
7598;DHT22;3840;59.32098800;18.06423600;2023-06-19T11:44:28;18.90;99.90
7598;DHT22;3840;59.32098800;18.06423600;2023-06-19T11:46:57;19.10;99.90
7598;DHT22;3840;59.32098800;18.06423600;2023-06-19T11:49:24;19.30;99.90
7598;DHT22;3840;59.32098800;18.06423600;2023-06-19T11:51:51;19.50;99.90
7598;DHT22;3840;59.32098800;18.06423600;2023-06-19T11:54:19;19.50;99.90
7598;DHT22;3840;59.32098800;18.06423600;2023-06-19T11:56:45;19.70;99.90
7598;DHT22;3840;59.32098800;18.06423600;2023-06-19T11:59:10;19.70;99.90
7598;DHT22;3840;59.32098800;18.06423600;2023-06-19T12:01:37;19.70;99.90
7598;DHT22;3840;59.32098800;18.06423600;2023-06-19T12:04:04;19.80;99.90
7598;DHT22;3840;59.32098800;18.06423600;2023-06-19T12:06:30;19.90;99.90
7598;DHT22;3840;59.32098800;18.06423600;2023-06-19T12:08:56;19.80;99.90
7598;DHT22;3840;59.32098800;18.06423600;2023-06-19T12:11:22;19.90;99.90
7598;DHT22;3840;59.32098800;18.06423600;2023-06-19T12:13:48;19.80;99.90
7598;DHT22;3840;59.32098800;18.06423600;2023-06-19T12:16:15;19.80;99.90
7598;DHT22;3840;59.32098800;18.06423600;2023-06-19T12:18:41;19.80;99.90
7598;DHT22;3840;59.32098800;18.06423600;2023-06-19T12:21:07;20.00;99.90
7598;DHT22;3840;59.32098800;18.06423600;2023-06-19T12:23:34;20.00;99.90
7598;DHT22;3840;59.32098800;18.06423600;2023-06-19T12:25:59;20.10;99.90
7598;DHT22;3840;59.32098800;18.06423600;2023-06-19T12:28:26;20.10;99.90
7598;DHT22;3840;59.32098800;18.06423600;2023-06-19T12:30:53;20.30;99.90
7598;DHT22;3840;59.32098800;18.06423600;2023-06-19T12:33:19;20.40;99.90
7598;DHT22;3840;59.32098800;18.06423600;2023-06-19T12:35:47;20.40;99.90
7598;DHT22;3840;59.32098800;18.06423600;2023-06-19T12:38:13;20.60;99.90
7598;DHT22;3840;59.32098800;18.06423600;2023-06-19T12:40:40;20.60;99.90
7598;DHT22;3840;59.32098800;18.06423600;2023-06-19T12:43:06;20.60;99.90
7598;DHT22;3840;59.32098800;18.06423600;2023-06-19T12:45:33;20.70;99.90
7598;DHT22;3840;59.32098800;18.06423600;2023-06-19T12:47:59;20.80;99.90
7598;DHT22;3840;59.32098800;18.06423600;2023-06-19T12:50:26;20.80;99.90
7598;DHT22;3840;59.32098800;18.06423600;2023-06-19T12:52:52;20.90;99.90
7598;DHT22;3840;59.32098800;18.06423600;2023-06-19T12:55:18;21.10;99.90
7598;DHT22;3840;59.32098800;18.06423600;2023-06-19T12:57:44;21.10;99.90
7598;DHT22;3840;59.32098800;18.06423600;2023-06-19T13:00:11;21.10;99.90
7598;DHT22;3840;59.32098800;18.06423600;2023-06-19T13:02:39;21.10;99.90
7598;DHT22;3840;59.32098800;18.06423600;2023-06-19T13:05:06;21.00;99.90
7598;DHT22;3840;59.32098800;18.06423600;2023-06-19T13:07:32;21.10;99.90
7598;DHT22;3840;59.32098800;18.06423600;2023-06-19T13:09:58;21.10;99.90
7598;DHT22;3840;59.32098800;18.06423600;2023-06-19T13:12:24;21.10;99.90
7598;DHT22;3840;59.32098800;18.06423600;2023-06-19T13:14:50;21.10;99.90
7598;DHT22;3840;59.32098800;18.06423600;2023-06-19T13:17:16;21.10;99.90
7598;DHT22;3840;59.32098800;18.06423600;2023-06-19T13:19:42;21.10;99.90
7598;DHT22;3840;59.32098800;18.06423600;2023-06-19T13:22:08;21.10;99.90
7598;DHT22;3840;59.32098800;18.06423600;2023-06-19T13:24:35;21.30;99.90
7598;DHT22;3840;59.32098800;18.06423600;2023-06-19T13:27:01;21.20;99.90
7598;DHT22;3840;59.32098800;18.06423600;2023-06-19T13:29:27;21.20;99.90
7598;DHT22;3840;59.32098800;18.06423600;2023-06-19T13:31:53;21.30;99.90
7598;DHT22;3840;59.32098800;18.06423600;2023-06-19T13:34:19;21.20;99.90
7598;DHT22;3840;59.32098800;18.06423600;2023-06-19T13:36:47;21.10;99.90
7598;DHT22;3840;59.32098800;18.06423600;2023-06-19T13:39:13;20.90;99.90
7598;DHT22;3840;59.32098800;18.06423600;2023-06-19T13:41:38;20.80;99.90